Time;durP1;ratioP1;P1;durP2;ratioP2;P2;SDS_P1;SDS_P2;PMS_P1;PMS_P2;Temp;Humidity;BMP_temperature;BMP_pressure;BME280_temperature;BME280_humidity;BME280_pressure;Samples;Min_cycle;Max_cycle;Signal;HPM_P1;HPM_P2
2022/12/21 00:00:10;;;;;;;14.35;5.63;;;;;;;13.65;94.81;100631.13;5096678;28;20048;-71
2022/12/21 00:02:40;;;;;;;12.65;5.78;;;;;;;13.67;94.83;100635.19;5096477;28;20052;-72
2022/12/21 00:05:08;;;;;;;11.80;5.07;;;;;;;13.75;94.89;100630.75;5078094;28;20059;-71
2022/12/21 00:07:36;;;;;;;9.48;4.85;;;;;;;13.80;93.58;100636.06;5096356;28;20059;-72
2022/12/21 00:10:04;;;;;;;14.38;5.90;;;;;;;13.72;93.75;100636.94;5077404;28;20048;-71
2022/12/21 00:12:31;;;;;;;9.93;5.28;;;;;;;13.64;94.64;100638.63;5077982;28;20056;-71
2022/12/21 00:14:58;;;;;;;9.80;5.13;;;;;;;13.87;94.40;100634.41;5078537;28;20051;-72
2022/12/21 00:17:26;;;;;;;10.98;6.13;;;;;;;13.92;93.34;100647.22;5096014;28;20055;-71
2022/12/21 00:19:53;;;;;;;11.05;5.63;;;;;;;14.09;93.98;100644.31;5078052;28;20410;-72
2022/12/21 00:22:21;;;;;;;10.48;5.53;;;;;;;13.83;93.60;100649.22;5061628;28;20063;-72
2022/12/21 00:24:51;;;;;;;11.07;5.78;;;;;;;14.02;95.33;100642.09;5077575;28;20040;-71
2022/12/21 00:27:18;;;;;;;10.98;6.07;;;;;;;14.12;93.00;100627.03;5078255;28;20055;-71
2022/12/21 00:29:46;;;;;;;13.20;5.90;;;;;;;13.83;92.76;100638.16;5078463;28;20059;-71
2022/12/21 00:32:13;;;;;;;12.55;6.38;;;;;;;13.85;93.86;100633.09;5060824;28;20059;-71
2022/12/21 00:34:40;;;;;;;13.90;6.25;;;;;;;13.97;93.58;100627.63;5078801;28;20040;-70
2022/12/21 00:37:07;;;;;;;11.48;6.10;;;;;;;14.03;93.73;100626.28;5077254;28;20056;-71
2022/12/21 00:39:37;;;;;;;15.50;6.60;;;;;;;14.01;94.46;100628.59;5061792;28;20055;-70
2022/12/21 00:42:07;;;;;;;11.02;6.22;;;;;;;13.70;93.57;100629.00;5095457;28;20056;-72
2022/12/21 00:44:35;;;;;;;9.35;5.72;;;;;;;13.78;94.44;100628.09;5078286;28;20048;-70
2022/12/21 00:47:03;;;;;;;11.63;5.90;;;;;;;13.71;94.41;100635.31;5077592;28;20058;-71
2022/12/21 00:49:30;;;;;;;11.27;5.75;;;;;;;13.84;95.04;100637.03;5096092;28;20075;-71
2022/12/21 00:51:57;;;;;;;10.88;6.18;;;;;;;13.71;93.91;100630.59;5076930;28;20056;-71
2022/12/21 00:54:25;;;;;;;11.75;5.65;;;;;;;13.86;95.05;100629.19;5061029;28;20048;-70
2022/12/21 00:56:52;;;;;;;11.82;6.45;;;;;;;13.83;94.73;100632.63;5077565;28;20062;-70
2022/12/21 00:59:20;;;;;;;11.57;5.95;;;;;;;13.91;95.90;100640.06;5042600;28;20541;-71
2022/12/21 01:01:47;;;;;;;9.85;5.90;;;;;;;13.74;95.36;100642.97;5094680;28;20066;-70
2022/12/21 01:04:17;;;;;;;11.13;5.80;;;;;;;13.91;95.02;100635.34;5078333;28;20505;-70
2022/12/21 01:06:45;;;;;;;11.45;5.50;;;;;;;13.80;94.82;100638.84;5077388;28;20056;-70
2022/12/21 01:09:12;;;;;;;10.73;5.78;;;;;;;13.65;95.70;100650.50;5095917;28;20048;-70
2022/12/21 01:11:39;;;;;;;13.45;6.40;;;;;;;13.71;95.87;100655.50;5075704;28;20040;-70
2022/12/21 01:14:06;;;;;;;17.08;5.85;;;;;;;13.66;95.94;100652.94;5096018;28;20040;-70
2022/12/21 01:16:34;;;;;;;12.98;5.85;;;;;;;13.50;96.85;100651.91;5076542;28;20051;-71
2022/12/21 01:19:03;;;;;;;12.48;5.68;;;;;;;13.74;97.84;100651.28;5077690;28;20047;-71
2022/12/21 01:21:31;;;;;;;12.88;5.63;;;;;;;13.71;96.63;100644.44;5076929;28;20541;-71
2022/12/21 01:23:59;;;;;;;12.05;5.38;;;;;;;13.67;96.03;100656.53;5095079;28;20048;-70
2022/12/21 01:26:27;;;;;;;9.30;4.90;;;;;;;13.52;97.40;100658.72;5042973;28;20040;-71
2022/12/21 01:28:54;;;;;;;10.88;5.40;;;;;;;13.44;97.42;100656.00;5095791;28;20044;-71
2022/12/21 01:31:21;;;;;;;8.75;4.82;;;;;;;13.46;97.28;100665.59;5092765;28;20052;-71
2022/12/21 01:33:49;;;;;;;10.13;4.75;;;;;;;13.64;96.70;100669.06;5095590;28;20059;-71
2022/12/21 01:36:17;;;;;;;8.90;5.00;;;;;;;13.51;96.33;100665.41;5076180;28;20478;-70
2022/12/21 01:38:45;;;;;;;9.18;5.18;;;;;;;13.60;96.03;100656.25;5107170;28;20118;-71
2022/12/21 01:41:19;;;;;;;9.48;4.88;;;;;;;13.52;96.62;100663.44;5063871;28;20067;-71
2022/12/21 01:43:51;;;;;;;7.95;4.65;;;;;;;13.65;96.30;100654.06;5060922;28;20384;-71
2022/12/21 01:46:21;;;;;;;10.05;4.63;;;;;;;13.66;95.20;100666.78;5094625;28;20052;-71
2022/12/21 01:48:57;;;;;;;8.85;4.50;;;;;;;13.65;96.04;100669.88;5095086;28;20059;-71
2022/12/21 01:51:25;;;;;;;9.00;4.50;;;;;;;13.62;95.71;100671.34;5093719;28;20390;-71
2022/12/21 01:54:02;;;;;;;8.15;4.13;;;;;;;13.67;94.89;100673.94;5095176;28;20395;-71
2022/12/21 01:56:32;;;;;;;8.35;4.43;;;;;;;13.63;95.16;100677.72;5077110;28;20483;-71
2022/12/21 01:59:06;;;;;;;8.95;4.35;;;;;;;13.61;95.21;100677.22;5095378;28;20044;-70
2022/12/21 02:01:34;;;;;;;9.90;4.43;;;;;;;13.63;95.24;100688.78;5067315;28;20052;-71
2022/12/21 02:04:02;;;;;;;10.00;4.63;;;;;;;13.62;95.58;100692.69;5077092;28;20059;-71
2022/12/21 02:06:34;;;;;;;11.65;4.28;;;;;;;13.74;97.86;100701.09;5045088;28;20403;-72
2022/12/21 02:09:02;;;;;;;8.43;3.90;;;;;;;13.56;95.42;100695.63;5064353;28;20064;-70
2022/12/21 02:11:29;;;;;;;9.30;3.85;;;;;;;13.31;94.23;100709.59;5080452;28;20044;-71
2022/12/21 02:13:57;;;;;;;5.25;2.80;;;;;;;12.94;94.59;100716.69;5099273;28;20497;-71
2022/12/21 02:16:27;;;;;;;4.82;2.15;;;;;;;12.81;94.90;100709.41;5098453;28;20067;-71
2022/12/21 02:19:16;;;;;;;4.32;2.40;;;;;;;13.12;95.62;100715.53;5079436;28;20525;-71
2022/12/21 02:21:54;;;;;;;3.95;2.45;;;;;;;12.88;93.06;100709.72;5090250;28;20052;-71
2022/12/21 02:24:47;;;;;;;4.47;2.65;;;;;;;12.76;91.81;100709.56;5080390;28;20493;-71
2022/12/21 02:27:38;;;;;;;5.07;2.80;;;;;;;12.56;93.71;100703.91;5095666;28;20040;-71
2022/12/21 02:30:18;;;;;;;4.78;2.40;;;;;;;13.02;94.91;100699.28;5045497;28;20059;-71
2022/12/21 02:33:04;;;;;;;4.03;2.20;;;;;;;12.93;91.58;100692.13;5092032;28;20064;-71
2022/12/21 02:36:06;;;;;;;4.32;2.20;;;;;;;12.68;92.26;100693.00;5079336;28;20056;-72
2022/12/21 02:39:03;;;;;;;4.20;2.20;;;;;;;12.48;92.11;100703.59;5069538;28;20056;-71
2022/12/21 02:41:40;;;;;;;3.72;2.20;;;;;;;12.27;91.45;100699.06;5097216;28;20063;-71
2022/12/21 02:44:16;;;;;;;5.88;2.00;;;;;;;12.01;93.06;100698.25;5079497;28;20048;-71
2022/12/21 02:47:02;;;;;;;5.75;2.60;;;;;;;12.00;94.22;100702.13;5113661;28;20044;-71
2022/12/21 02:49:49;;;;;;;3.70;2.22;;;;;;;12.14;93.84;100703.59;5078209;28;20052;-71
2022/12/21 02:52:38;;;;;;;4.85;2.45;;;;;;;12.17;93.50;100702.13;5110829;28;20052;-69
2022/12/21 02:55:11;;;;;;;3.88;2.38;;;;;;;12.16;93.16;100706.03;5080354;28;20052;-70
2022/12/21 02:57:42;;;;;;;3.47;2.25;;;;;;;12.16;93.82;100709.63;5063668;28;20052;-70
2022/12/21 03:00:14;;;;;;;4.03;2.42;;;;;;;12.17;93.00;100718.69;5047010;28;20051;-70
2022/12/21 03:03:47;;;;;;;4.35;2.78;;;;;;;11.76;93.18;100716.38;5062464;28;20048;-70
2022/12/21 03:06:08;;;;;;;4.28;2.28;;;;;;;11.86;94.73;100713.31;5049495;28;20517;-70
2022/12/21 03:09:01;;;;;;;6.28;3.00;;;;;;;11.98;95.37;100719.00;5080077;28;20406;-70
2022/12/21 03:11:57;;;;;;;4.68;2.67;;;;;;;11.85;93.21;100716.41;5079532;28;20056;-70
2022/12/21 03:14:52;;;;;;;3.20;2.10;;;;;;;11.71;93.63;100724.00;5076593;28;20070;-70
2022/12/21 03:17:55;;;;;;;4.25;1.90;;;;;;;12.12;93.45;100727.13;5062225;28;20052;-70
2022/12/21 03:20:44;;;;;;;3.25;2.10;;;;;;;11.65;93.61;100725.25;5097320;28;20063;-69
2022/12/21 03:23:19;;;;;;;3.30;2.03;;;;;;;11.49;94.02;100726.81;5080026;28;20066;-70
2022/12/21 03:25:58;;;;;;;3.40;1.90;;;;;;;11.67;93.42;100717.47;5045572;28;20494;-71
2022/12/21 03:28:29;;;;;;;6.53;2.27;;;;;;;11.67;92.84;100714.72;5061581;28;20514;-70
2022/12/21 03:31:04;;;;;;;3.95;2.25;;;;;;;11.68;92.44;100714.41;5079386;28;20391;-70
2022/12/21 03:33:36;;;;;;;3.80;1.80;;;;;;;11.70;91.98;100719.63;5097691;28;20056;-71
2022/12/21 03:36:09;;;;;;;3.63;2.20;;;;;;;11.73;92.25;100727.25;5062636;28;20055;-70
2022/12/21 03:38:47;;;;;;;4.72;2.22;;;;;;;11.94;91.65;100729.06;5077870;28;20048;-71
2022/12/21 03:41:22;;;;;;;4.13;2.00;;;;;;;11.97;90.69;100733.97;5094331;28;20048;-71
2022/12/21 03:43:51;;;;;;;3.38;2.13;;;;;;;11.90;91.16;100738.31;5079690;28;20051;-70
2022/12/21 03:46:26;;;;;;;4.28;2.60;;;;;;;11.84;91.60;100734.91;5061753;28;20043;-71
2022/12/21 03:48:59;;;;;;;3.53;2.10;;;;;;;11.92;91.69;100725.84;5074717;28;20061;-71
2022/12/21 03:51:35;;;;;;;5.75;2.42;;;;;;;11.80;91.17;100727.59;5078722;28;20048;-70
2022/12/21 03:54:19;;;;;;;4.15;2.42;;;;;;;11.97;91.21;100724.84;5079757;28;20044;-71
2022/12/21 03:56:47;;;;;;;3.67;2.05;;;;;;;12.00;90.61;100738.00;5096216;28;20123;-71
2022/12/21 03:59:15;;;;;;;3.03;1.90;;;;;;;11.67;90.56;100737.63;5061902;28;20048;-70
2022/12/21 04:01:50;;;;;;;3.20;1.70;;;;;;;11.73;91.09;100736.34;5078397;28;20510;-71
2022/12/21 04:04:25;;;;;;;2.78;1.58;;;;;;;11.97;89.86;100735.91;5062454;28;20051;-70
2022/12/21 04:06:53;;;;;;;2.55;1.80;;;;;;;11.76;89.64;100740.41;5061526;28;20444;-70
2022/12/21 04:09:20;;;;;;;3.50;1.48;;;;;;;11.83;89.58;100736.03;5078979;28;20519;-70
2022/12/21 04:14:41;;;;;;;2.97;1.55;;;;;;;12.03;88.47;100738.19;5060866;28;20060;-70
2022/12/21 04:17:09;;;;;;;2.85;1.48;;;;;;;11.84;88.45;100736.84;5096312;28;20394;-70
2022/12/21 04:28:07;;;;;;;2.85;1.10;;;;;;;12.06;87.44;100759.63;5096237;28;20048;-70
2022/12/21 04:30:56;;;;;;;2.22;1.05;;;;;;;11.76;87.91;100762.47;5080929;28;20165;-70
2022/12/21 04:33:24;;;;;;;2.70;1.30;;;;;;;11.84;87.62;100761.66;5096471;28;20056;-71
2022/12/21 04:38:40;;;;;;;3.60;1.40;;;;;;;11.79;87.72;100756.31;5096331;28;20056;-70
2022/12/21 04:41:08;;;;;;;2.78;1.38;;;;;;;11.86;88.22;100753.88;5060604;28;20044;-70
2022/12/21 04:43:37;;;;;;;3.47;1.40;;;;;;;11.95;87.37;100754.72;5078253;28;20052;-71
2022/12/21 04:46:06;;;;;;;2.42;1.20;;;;;;;11.90;87.47;100765.91;5061107;28;20056;-70
2022/12/21 04:48:35;;;;;;;2.20;1.10;;;;;;;11.59;87.75;100765.16;5096071;28;20064;-70
2022/12/21 04:51:11;;;;;;;3.40;1.30;;;;;;;11.58;88.20;100766.25;5060545;28;20158;-70
2022/12/21 04:53:39;;;;;;;4.85;1.58;;;;;;;11.69;87.76;100762.94;5078268;28;20530;-70
2022/12/21 04:56:07;;;;;;;3.90;1.75;;;;;;;11.63;88.43;100769.69;5094839;28;20044;-71
2022/12/21 04:58:34;;;;;;;5.95;1.33;;;;;;;11.58;87.67;100769.84;5077610;28;20051;-70
2022/12/21 05:01:13;;;;;;;2.88;1.60;;;;;;;11.71;87.93;100763.44;5095418;28;20048;-69
2022/12/21 05:03:41;;;;;;;5.15;2.05;;;;;;;11.87;87.18;100758.28;5061252;28;20059;-69
2022/12/21 05:06:10;;;;;;;6.63;1.73;;;;;;;11.67;86.97;100758.88;5095538;28;20052;-69
2022/12/21 05:08:39;;;;;;;3.78;1.52;;;;;;;11.66;87.50;100765.53;5095853;28;20063;-70
2022/12/21 05:11:13;;;;;;;3.90;1.50;;;;;;;11.70;87.17;100775.59;5094342;28;20059;-69
2022/12/21 05:13:41;;;;;;;7.53;1.48;;;;;;;11.68;86.62;100772.34;5096224;28;20052;-70
2022/12/21 05:16:12;;;;;;;5.40;1.83;;;;;;;11.46;87.59;100786.19;5095368;28;20048;-70
2022/12/21 05:18:40;;;;;;;3.00;1.50;;;;;;;11.49;87.03;100787.50;5096166;28;20048;-70
2022/12/21 05:21:07;;;;;;;2.15;1.08;;;;;;;11.47;87.02;100785.06;5095417;28;20048;-70
2022/12/21 05:23:34;;;;;;;4.25;1.45;;;;;;;11.49;86.58;100788.28;5060631;28;20052;-71
2022/12/21 05:26:03;;;;;;;3.35;1.40;;;;;;;11.56;86.71;100785.09;5075806;28;20048;-71
2022/12/21 05:28:41;;;;;;;3.92;1.50;;;;;;;11.53;86.30;100786.53;5077481;28;20048;-70
2022/12/21 05:31:09;;;;;;;6.80;2.15;;;;;;;11.45;86.77;100775.47;5060725;28;20043;-70
2022/12/21 05:33:36;;;;;;;4.75;1.73;;;;;;;11.47;86.29;100787.00;5076530;28;20056;-70
2022/12/21 05:36:05;;;;;;;5.70;1.40;;;;;;;11.47;86.39;100785.06;5095133;28;20052;-70
2022/12/21 05:38:33;;;;;;;6.40;1.50;;;;;;;11.55;85.69;100786.22;5095566;28;20483;-71
2022/12/21 05:41:00;;;;;;;5.90;1.70;;;;;;;11.61;84.79;100771.16;5074398;28;20180;-71
2022/12/21 05:43:28;;;;;;;4.35;1.67;;;;;;;11.38;85.21;100780.63;5094750;28;20056;-70
2022/12/21 05:46:07;;;;;;;6.03;1.27;;;;;;;11.38;85.08;100778.69;5076847;28;20044;-69
2022/12/21 05:48:35;;;;;;;3.42;1.65;;;;;;;11.59;85.57;100782.53;5095002;28;20063;-70
2022/12/21 05:51:14;;;;;;;6.53;1.90;;;;;;;11.44;84.90;100793.16;5094200;28;20060;-71
2022/12/21 05:53:54;;;;;;;4.32;1.88;;;;;;;11.41;85.46;100782.75;5060061;28;20052;-71
2022/12/21 05:56:37;;;;;;;3.60;1.50;;;;;;;11.39;84.81;100788.56;5063409;28;20047;-71
2022/12/21 05:59:04;;;;;;;4.93;1.63;;;;;;;11.40;84.94;100794.91;5060219;28;20059;-71
2022/12/21 06:01:32;;;;;;;4.13;1.70;;;;;;;11.22;85.59;100788.50;5093669;28;20044;-71
2022/12/21 06:03:59;;;;;;;6.70;2.00;;;;;;;11.30;85.54;100788.53;5077068;28;20048;-70
2022/12/21 06:06:26;;;;;;;6.30;2.15;;;;;;;11.29;85.53;100791.63;5076921;28;20055;-70
2022/12/21 06:08:54;;;;;;;4.93;1.80;;;;;;;11.32;85.51;100794.56;5095191;28;20051;-70
2022/12/21 06:11:23;;;;;;;5.40;1.75;;;;;;;11.24;87.05;100792.53;5076908;28;20526;-70
2022/12/21 06:13:51;;;;;;;5.65;1.63;;;;;;;11.21;86.68;100789.59;5061085;28;20052;-70
2022/12/21 06:16:21;;;;;;;7.75;2.03;;;;;;;11.18;86.25;100788.31;5093711;28;20051;-71
2022/12/21 06:18:51;;;;;;;7.40;1.85;;;;;;;11.21;85.97;100787.66;5077418;28;20040;-70
2022/12/21 06:21:19;;;;;;;7.43;1.95;;;;;;;11.08;85.83;100787.75;5076707;28;20052;-70
2022/12/21 06:23:47;;;;;;;9.38;1.80;;;;;;;11.02;86.60;100798.09;5077104;28;20052;-69
2022/12/21 06:26:17;;;;;;;4.53;1.98;;;;;;;10.94;87.31;100798.03;5094275;28;20052;-70
2022/12/21 06:28:53;;;;;;;4.63;1.75;;;;;;;11.10;87.15;100805.63;5095523;28;20483;-72
2022/12/21 06:31:23;;;;;;;8.73;2.22;;;;;;;11.12;86.17;100808.84;5075570;28;20040;-70
2022/12/21 06:33:50;;;;;;;7.57;2.17;;;;;;;10.95;87.29;100806.00;5076223;28;20064;-70
2022/12/21 06:36:18;;;;;;;6.60;2.30;;;;;;;10.99;88.08;100820.78;5094618;28;20051;-71
2022/12/21 06:38:45;;;;;;;10.75;2.30;;;;;;;10.95;87.80;100814.25;5075104;28;20051;-69
2022/12/21 06:41:14;;;;;;;4.07;1.92;;;;;;;10.91;87.24;100824.28;5110240;28;20395;-71
2022/12/21 06:43:42;;;;;;;6.78;2.30;;;;;;;10.96;88.14;100818.66;5058138;28;20055;-70
2022/12/21 06:46:12;;;;;;;8.07;2.20;;;;;;;11.21;90.25;100818.00;5074213;28;20048;-70
2022/12/21 06:48:40;;;;;;;8.07;2.60;;;;;;;10.85;88.51;100816.44;5094825;28;20059;-71
2022/12/21 06:51:11;;;;;;;3.25;2.05;;;;;;;11.18;91.67;100812.28;5060851;28;20396;-70
2022/12/21 06:53:41;;;;;;;7.13;2.22;;;;;;;10.90;88.54;100814.38;5095223;28;20040;-71
2022/12/21 06:56:11;;;;;;;8.80;2.50;;;;;;;10.77;88.31;100829.06;5078812;28;20546;-71
2022/12/21 06:58:47;;;;;;;10.80;2.58;;;;;;;10.70;87.48;100823.16;5095077;28;20051;-71
2022/12/21 07:01:20;;;;;;;8.20;2.63;;;;;;;10.72;89.98;100815.38;5096030;28;20056;-70
2022/12/21 07:03:47;;;;;;;7.07;3.03;;;;;;;10.72;88.35;100817.31;5069332;28;20060;-70
2022/12/21 07:06:16;;;;;;;9.95;3.40;;;;;;;10.43;88.61;100830.66;5063540;28;20052;-73
2022/12/21 07:08:44;;;;;;;7.63;3.00;;;;;;;10.46;89.98;100833.59;5079901;28;20036;-71
2022/12/21 07:11:14;;;;;;;9.82;3.42;;;;;;;10.22;89.76;100832.25;5096886;28;20048;-70
2022/12/21 07:13:43;;;;;;;5.97;2.88;;;;;;;11.15;94.79;100835.00;5075846;28;20059;-71
2022/12/21 07:16:12;;;;;;;9.85;3.53;;;;;;;10.98;91.50;100835.66;5092944;28;20387;-69
2022/12/21 07:18:40;;;;;;;11.23;3.50;;;;;;;11.41;90.15;100835.13;5071951;28;20058;-73
2022/12/21 07:21:11;;;;;;;11.02;3.17;;;;;;;11.10;86.04;100837.88;5099627;28;20044;-70
2022/12/21 07:23:39;;;;;;;9.38;3.40;;;;;;;10.97;85.48;100838.75;5086800;28;20051;-77
2022/12/21 07:26:20;;;;;;;9.32;3.42;;;;;;;10.62;86.93;100829.38;5085101;28;20054;-61
2022/12/21 07:28:48;;;;;;;9.88;3.40;;;;;;;10.72;87.43;100831.91;5114043;28;20047;-61
2022/12/21 07:31:27;;;;;;;11.57;3.78;;;;;;;10.67;87.26;100840.28;5094994;28;20411;-61
2022/12/21 07:33:55;;;;;;;8.83;4.20;;;;;;;10.67;87.15;100843.03;5080550;28;20048;-61
2022/12/21 07:36:22;;;;;;;7.30;3.53;;;;;;;10.64;87.56;100834.59;5072350;28;20070;-61
2022/12/21 07:38:50;;;;;;;11.13;4.40;;;;;;;10.46;87.81;100844.63;5104285;28;20056;-62
2022/12/21 07:41:17;;;;;;;11.85;4.65;;;;;;;10.61;87.71;100860.81;5078768;28;20993;-61
2022/12/21 07:43:45;;;;;;;11.38;4.22;;;;;;;10.59;87.52;100859.50;5096332;28;20546;-60
2022/12/21 07:46:21;;;;;;;10.57;4.40;;;;;;;10.46;87.62;100858.38;5098078;28;20616;-61
2022/12/21 07:48:49;;;;;;;13.35;4.88;;;;;;;10.55;87.99;100856.53;5105661;28;20058;-61
2022/12/21 07:51:16;;;;;;;13.50;5.10;;;;;;;10.60;87.90;100861.94;5073662;28;20055;-61
2022/12/21 07:53:44;;;;;;;12.95;5.28;;;;;;;10.66;87.18;100857.94;5092513;28;20510;-62
2022/12/21 07:56:14;;;;;;;13.48;5.20;;;;;;;10.70;86.84;100863.66;5060042;28;20098;-66
2022/12/21 07:58:41;;;;;;;;;;;;;;;10.37;87.70;100863.03;5111081;28;20056;-61
2022/12/21 08:01:11;;;;;;;15.50;5.82;;;;;;;10.49;88.25;100870.75;5063674;28;19920;-64
2022/12/21 08:03:39;;;;;;;12.20;5.43;;;;;;;10.62;87.96;100875.38;5092306;28;20047;-64
2022/12/21 08:06:08;;;;;;;10.05;5.40;;;;;;;10.59;87.66;100876.00;5082969;28;20294;-64
2022/12/21 08:08:35;;;;;;;15.23;5.07;;;;;;;10.59;88.19;100865.00;5066675;28;20507;-63
2022/12/21 08:11:03;;;;;;;10.57;5.05;;;;;;;10.54;88.03;100871.44;5077328;28;20044;-62
2022/12/21 08:13:30;;;;;;;14.48;5.32;;;;;;;10.69;88.00;100867.53;5072586;28;20051;-63
2022/12/21 08:16:09;;;;;;;12.40;5.45;;;;;;;10.75;87.27;100872.63;5062835;28;20055;-63
2022/12/21 08:18:38;;;;;;;12.57;5.68;;;;;;;10.78;86.65;100863.72;5086857;28;20513;-63
2022/12/21 08:21:05;;;;;;;10.60;5.30;;;;;;;10.76;87.65;100854.13;5092837;28;20131;-63
2022/12/21 08:23:32;;;;;;;12.15;5.18;;;;;;;10.66;87.02;100863.47;5110550;28;20058;-65
2022/12/21 08:26:04;;;;;;;11.00;4.68;;;;;;;10.63;87.11;100866.03;5095484;28;20048;-65
2022/12/21 08:28:32;;;;;;;12.88;4.82;;;;;;;10.75;86.87;100869.03;5078164;28;20048;-63
2022/12/21 08:31:05;;;;;;;9.30;4.15;;;;;;;10.83;87.07;100862.78;5084076;28;20056;-62
2022/12/21 08:33:32;;;;;;;15.82;5.53;;;;;;;10.84;86.51;100851.47;5088890;28;20055;-62
2022/12/21 08:36:00;;;;;;;10.95;4.45;;;;;;;10.73;86.98;100852.81;5089465;28;20059;-61
2022/12/21 08:38:27;;;;;;;12.30;5.10;;;;;;;10.79;87.02;100856.28;5092805;28;20051;-62
2022/12/21 08:41:15;;;;;;;13.23;4.32;;;;;;;10.95;86.35;100852.84;5092310;28;20044;-61
2022/12/21 08:43:43;;;;;;;10.07;4.10;;;;;;;10.98;86.28;100859.69;5064390;28;20059;-63
2022/12/21 08:46:12;;;;;;;11.07;3.95;;;;;;;10.98;85.77;100865.19;5075430;28;20060;-62
2022/12/21 08:48:39;;;;;;;10.35;4.00;;;;;;;10.97;86.07;100875.41;5060283;28;20067;-62
2022/12/21 08:51:07;;;;;;;12.40;4.32;;;;;;;11.01;85.79;100876.41;5091881;28;20040;-61
2022/12/21 08:53:41;;;;;;;8.93;4.00;;;;;;;11.07;85.53;100883.41;5080079;28;20043;-62
2022/12/21 08:56:15;;;;;;;11.20;3.90;;;;;;;11.13;84.99;100884.94;5077894;28;20047;-63
2022/12/21 08:58:42;;;;;;;10.63;4.15;;;;;;;11.24;84.25;100886.28;5074699;28;20375;-62
2022/12/21 09:01:10;;;;;;;12.45;4.78;;;;;;;11.23;84.55;100867.31;5092241;28;20047;-63
2022/12/21 09:03:37;;;;;;;13.63;3.65;;;;;;;11.21;84.62;100864.88;5094280;28;20052;-62
2022/12/21 09:06:08;;;;;;;16.58;4.05;;;;;;;11.34;83.98;100858.47;5083217;28;20056;-63
2022/12/21 09:08:37;;;;;;;8.38;4.00;;;;;;;11.27;83.77;100846.25;5071726;28;20052;-62
2022/12/21 09:11:07;;;;;;;14.32;4.15;;;;;;;11.34;83.74;100855.72;5105645;28;20046;-61
2022/12/21 09:13:35;;;;;;;15.07;4.35;;;;;;;11.47;83.81;100861.47;5097292;28;20483;-64
2022/12/21 09:16:09;;;;;;;13.77;3.97;;;;;;;11.44;83.81;100864.88;5072790;28;20044;-61
2022/12/21 09:18:43;;;;;;;11.38;4.10;;;;;;;11.38;83.54;100859.47;5087074;28;20325;-63
2022/12/21 09:21:12;;;;;;;9.48;3.95;;;;;;;11.37;84.20;100864.50;5056966;28;20055;-63
2022/12/21 09:23:39;;;;;;;8.93;3.78;;;;;;;11.66;83.34;100857.41;5107062;28;20063;-63
2022/12/21 09:26:08;;;;;;;12.45;4.10;;;;;;;11.69;82.75;100850.41;5097040;28;20048;-63
2022/12/21 09:28:36;;;;;;;12.43;4.53;;;;;;;11.60;83.17;100864.13;5099813;28;20059;-61
2022/12/21 09:31:12;;;;;;;16.25;8.75;;;;;;;11.58;83.20;100860.88;5086899;28;20410;-63
2022/12/21 09:33:45;;;;;;;21.50;8.63;;;;;;;11.69;83.08;100856.75;5091102;28;20048;-60
2022/12/21 09:36:13;;;;;;;13.13;5.28;;;;;;;11.77;82.46;100868.97;5062835;28;20043;-61
2022/12/21 09:38:40;;;;;;;9.30;4.72;;;;;;;11.91;82.48;100886.22;5094482;28;20044;-60
2022/12/21 09:42:00;;;;;;;13.18;4.18;;;;;;;12.10;82.07;100882.09;5093726;28;20040;-61
2022/12/21 09:44:43;;;;;;;12.05;4.35;;;;;;;11.82;82.24;100882.63;5057395;28;20059;-75
2022/12/21 09:47:21;;;;;;;11.40;5.15;;;;;;;11.56;83.50;100881.66;5079854;28;20056;-61
2022/12/21 09:49:53;;;;;;;18.23;8.98;;;;;;;11.68;83.66;100882.69;5063645;28;20048;-60
2022/12/21 09:52:25;;;;;;;14.27;5.18;;;;;;;11.73;83.21;100895.56;5089081;28;20063;-61
2022/12/21 09:55:03;;;;;;;8.77;3.78;;;;;;;11.74;83.50;100886.97;5070474;28;20087;-60
2022/12/21 09:57:34;;;;;;;10.57;4.57;;;;;;;11.88;83.50;100886.88;5090780;28;20059;-61
2022/12/21 10:00:14;;;;;;;15.40;3.80;;;;;;;11.96;83.47;100888.88;5098601;28;20558;-61
2022/12/21 10:02:54;;;;;;;13.38;4.28;;;;;;;11.78;83.22;100887.97;5098990;28;20467;-61
2022/12/21 10:06:01;;;;;;;8.68;3.95;;;;;;;11.89;83.76;100885.75;5096337;28;20047;-63
2022/12/21 10:08:44;;;;;;;11.50;4.07;;;;;;;11.71;83.76;100895.06;5109072;28;20044;-60
2022/12/21 10:11:23;;;;;;;8.05;3.28;;;;;;;11.98;84.19;100898.44;5095354;28;20048;-60
2022/12/21 10:14:17;;;;;;;9.55;3.28;;;;;;;12.10;83.03;100895.09;5088045;28;20423;-61
2022/12/21 10:17:06;;;;;;;12.60;5.30;;;;;;;11.97;82.42;100888.53;5086051;28;20126;-63
2022/12/21 10:20:12;;;;;;;17.63;9.20;;;;;;;11.85;82.70;100879.22;5098674;28;20052;-63
2022/12/21 10:22:42;;;;;;;13.43;4.07;;;;;;;11.92;82.88;100874.88;5093422;28;20059;-60
2022/12/21 10:25:14;;;;;;;;;;;;;;;11.87;82.52;100879.72;5097426;28;20048;-59
2022/12/21 10:28:01;;;;;;;11.27;3.72;;;;;;;11.79;83.16;100867.50;5099014;28;19920;-60
2022/12/21 10:30:30;;;;;;;15.40;3.92;;;;;;;11.79;83.35;100862.00;5097471;28;20054;-63
2022/12/21 10:32:58;;;;;;;10.77;3.92;;;;;;;11.85;83.72;100865.44;5099006;28;20051;-61
2022/12/21 10:35:35;;;;;;;9.68;3.70;;;;;;;11.85;83.30;100859.91;5098284;28;20410;-59
2022/12/21 10:38:11;;;;;;;9.02;3.03;;;;;;;11.82;83.37;100864.09;5091906;28;20052;-60
2022/12/21 10:40:38;;;;;;;15.60;3.70;;;;;;;11.73;84.19;100865.22;5083187;28;20056;-58
2022/12/21 10:43:09;;;;;;;11.90;3.65;;;;;;;11.87;83.65;100849.38;5081223;28;20074;-61
2022/12/21 10:45:36;;;;;;;12.07;4.38;;;;;;;11.95;82.80;100843.88;5096254;28;20048;-61
2022/12/21 10:48:04;;;;;;;12.13;3.60;;;;;;;11.99;83.24;100844.06;5096919;28;20044;-60
2022/12/21 10:50:33;;;;;;;9.90;3.50;;;;;;;11.98;82.83;100842.41;5081023;28;20052;-63
2022/12/21 10:53:21;;;;;;;13.38;4.15;;;;;;;11.90;83.26;100835.75;5078324;28;20056;-63
2022/12/21 10:55:51;;;;;;;13.18;4.32;;;;;;;11.95;82.79;100818.22;5091456;28;20044;-62
2022/12/21 10:58:22;;;;;;;13.88;4.65;;;;;;;11.92;82.77;100819.69;5087567;28;20052;-58
2022/12/21 11:00:56;;;;;;;10.73;4.05;;;;;;;12.03;82.77;100821.00;5076495;28;20070;-61
2022/12/21 11:03:28;;;;;;;9.05;4.13;;;;;;;12.19;82.24;100808.38;5076430;28;20059;-60
2022/12/21 11:05:56;;;;;;;11.15;3.83;;;;;;;12.30;81.60;100801.41;5095313;28;20048;-60
2022/12/21 11:08:31;;;;;;;11.10;4.85;;;;;;;12.25;81.65;100801.56;5084458;28;20050;-61
2022/12/21 11:11:02;;;;;;;16.77;5.63;;;;;;;12.26;81.58;100796.84;5103375;28;20055;-60
2022/12/21 11:13:31;;;;;;;21.95;10.63;;;;;;;12.16;82.00;100794.41;5081114;28;20052;-60
2022/12/21 11:16:04;;;;;;;14.93;6.20;;;;;;;12.25;82.16;100789.72;5074817;28;20549;-61
2022/12/21 11:18:39;;;;;;;12.60;5.60;;;;;;;12.34;81.72;100791.34;5085879;28;20052;-60
2022/12/21 11:21:38;;;;;;;20.40;7.10;;;;;;;12.36;81.47;100779.97;5101015;28;20059;-62
2022/12/21 11:24:31;;;;;;;14.00;6.70;;;;;;;12.49;81.43;100779.00;5071082;28;20051;-59
2022/12/21 11:27:26;;;;;;;11.65;6.03;;;;;;;12.50;80.59;100777.84;5091287;28;20309;-61
2022/12/21 11:29:57;;;;;;;13.35;5.28;;;;;;;12.42;80.62;100776.72;5073529;28;20063;-60
2022/12/21 11:32:27;;;;;;;12.52;5.40;;;;;;;12.52;80.58;100778.34;5093550;28;20063;-62
2022/12/21 11:35:06;;;;;;;15.18;6.32;;;;;;;12.56;80.29;100773.81;5063388;28;20056;-62
2022/12/21 11:37:36;;;;;;;16.77;8.18;;;;;;;12.46;80.80;100774.13;5104698;28;20036;-62
2022/12/21 11:40:20;;;;;;;22.60;8.32;;;;;;;12.51;81.02;100757.41;5101025;28;20056;-62
2022/12/21 11:42:53;;;;;;;17.75;8.80;;;;;;;12.48;81.02;100755.28;5097311;28;20067;-63
2022/12/21 11:45:45;;;;;;;14.05;7.80;;;;;;;12.46;80.96;100752.03;5078609;28;20059;-62
2022/12/21 11:48:39;;;;;;;16.17;9.15;;;;;;;12.69;80.16;100749.91;5096357;28;20054;-62
2022/12/21 11:51:36;;;;;;;13.43;6.10;;;;;;;12.69;80.32;100750.72;5097212;28;20395;-61
2022/12/21 11:54:41;;;;;;;13.05;5.80;;;;;;;12.71;79.60;100744.88;5096515;28;20051;-61
2022/12/21 11:57:31;;;;;;;13.05;5.00;;;;;;;12.63;80.54;100737.38;5094546;28;20387;-60
2022/12/21 12:00:05;;;;;;;10.75;5.00;;;;;;;12.41;80.95;100732.88;5107124;28;20139;-60
2022/12/21 12:03:15;;;;;;;16.48;5.35;;;;;;;12.55;81.17;100735.44;5066078;28;20537;-69